MMVR/VER METAR and TAF weather

Enter ICAO airport designator
Station Type Date Time Source
MMVR METAR 2022/06/28 03:42 UTC NOAA

MMVR 280342Z 28002KT 7SM SCT005 26/23 A3005 RMK 8/100 HZY


Station Type Date Time Source
MMVR Decoded METAR 2022/06/28 03:42 UTC NOAA

Veracruz / Las Bajadas / General Heriberto Jara, Mexico (MMVR) 19-09N 096-11W
Jun 27, 2022 - 11:42 PM EDT / 2022.06.28 0342 UTC
Wind: from the W (280 degrees) at 2 MPH (2 KT):0
Visibility: 7 mile(s):0
Sky conditions: partly cloudy
Temperature: 78 F (26 C)
Dew Point: 73 F (23 C)
Relative Humidity: 83%
Pressure (altimeter): 30.05 in. Hg (1017 hPa)
ob: MMVR 280342Z 28002KT 7SM SCT005 26/23 A3005 RMK 8/100 HZY
cycle: 3

Station Type Date Time Source
MMVR TAF 2022/06/28 06:08 UTC NOAA

TAF MMVR 280400Z 2806/2906 00000KT 6SM HZ SCT010 TX32/2819Z TN23/2812Z
TEMPO 2810/2814 3SM HZ BKN010
FM281800 13010KT 6SM HZ SCT020 BKN200
TEMPO 2822/2902 5SM TSRA BKN010CB

Example: see airport list